Time;durP1;ratioP1;P1;durP2;ratioP2;P2;SDS_P1;SDS_P2;PMS_P1;PMS_P2;Temp;Humidity;BMP_temperature;BMP_pressure;BME280_temperature;BME280_humidity;BME280_pressure;Samples;Min_cycle;Max_cycle;Signal;HPM_P1;HPM_P2
2021/07/04 00:02:09;;;;;;;;;8.00;7.00;;;;;22.55;55.96;100458.34;5054538;28;46460;-79
2021/07/04 00:04:34;;;;;;;;;6.25;5.75;;;;;22.44;55.54;100447.34;5073844;27;45733;-81
2021/07/04 00:07:00;;;;;;;;;6.50;5.75;;;;;22.49;55.61;100458.28;5095180;27;45763;-79
2021/07/04 00:09:26;;;;;;;;;6.00;5.00;;;;;22.38;55.77;100448.91;5077107;27;45640;-79
2021/07/04 00:11:51;;;;;;;;;7.00;6.75;;;;;22.46;55.82;100458.63;5095132;27;46578;-79
2021/07/04 00:14:17;;;;;;;;;6.00;6.00;;;;;22.43;55.88;100457.19;5095028;27;45605;-81
2021/07/04 00:20:10;;;;;;;;;6.00;6.00;;;;;22.42;56.01;100462.72;5094796;27;45616;-79
2021/07/04 00:22:35;;;;;;;;;6.50;6.00;;;;;22.41;56.64;100461.06;5094550;27;45879;-79
2021/07/04 00:25:01;;;;;;;;;6.25;6.25;;;;;22.36;56.10;100448.28;5095026;27;45771;-81
2021/07/04 00:27:26;;;;;;;;;7.25;5.50;;;;;22.34;56.71;100442.31;5094873;27;45702;-80
2021/07/04 00:29:52;;;;;;;;;6.00;6.00;;;;;22.26;55.96;100415.72;5094787;27;45573;-81
2021/07/04 00:32:17;;;;;;;;;6.50;5.50;;;;;22.44;56.63;100444.66;5094683;27;45544;-79
2021/07/04 00:34:42;;;;;;;;;7.00;7.00;;;;;22.36;56.25;100421.56;5094682;27;45748;-80
2021/07/04 00:37:09;;;;;;;;;6.75;6.00;;;;;22.48;56.47;100438.75;5094730;27;45583;-78
2021/07/04 00:39:34;;;;;;;;;7.50;6.00;;;;;22.49;56.06;100427.06;5094622;27;45598;-80
2021/07/04 00:42:00;;;;;;;;;5.75;5.75;;;;;22.50;56.06;100434.06;5094768;27;45851;-80
2021/07/04 00:44:25;;;;;;;;;5.75;5.00;;;;;22.52;56.19;100425.84;5092859;27;47832;-81
2021/07/04 00:50:14;;;;;;;;;7.00;7.00;;;;;22.54;56.35;100435.31;5094502;27;45723;-80
2021/07/04 00:52:41;;;;;;;;;8.00;7.00;;;;;22.48;56.76;100422.72;5093154;27;47713;-80
2021/07/04 00:55:13;;;;;;;;;7.25;6.50;;;;;22.54;56.55;100427.31;5094566;27;45968;-81
2021/07/04 00:57:38;;;;;;;;;7.00;7.00;;;;;22.45;56.71;100412.44;5094452;27;45693;-82
2021/07/04 01:00:08;;;;;;;;;5.25;5.25;;;;;22.51;56.50;100425.00;5094794;27;45544;-81
2021/07/04 01:02:34;;;;;;;;;7.00;5.25;;;;;22.49;56.46;100412.88;5096686;27;47034;-80
2021/07/04 01:04:59;;;;;;;;;6.75;5.75;;;;;22.53;56.43;100417.66;5097926;27;45527;-80
2021/07/04 01:07:25;;;;;;;;;10.75;9.00;;;;;22.50;56.80;100415.38;5101880;27;45522;-81
2021/07/04 01:09:51;;;;;;;;;8.50;8.50;;;;;22.48;56.69;100400.53;5102447;27;45832;-80
2021/07/04 01:12:16;;;;;;;;;6.00;6.00;;;;;22.39;56.65;100381.16;5105310;27;45644;-81
2021/07/04 01:14:42;;;;;;;;;6.00;6.00;;;;;22.55;57.07;100407.59;5104852;27;46196;-80
2021/07/04 01:20:30;;;;;;;;;6.00;6.00;;;;;22.48;56.83;100390.69;5101959;27;45556;-81
2021/07/04 01:23:16;;;;;;;;;6.25;5.00;;;;;22.59;56.96;100405.38;5101716;27;46950;-82
2021/07/04 01:25:51;;;;;;;;;4.75;4.75;;;;;22.59;57.01;100411.53;5098067;27;45637;-80
2021/07/04 01:28:17;;;;;;;;;5.75;5.75;;;;;22.56;56.76;100403.88;5098234;27;45607;-81
2021/07/04 01:30:46;;;;;;;;;5.00;5.00;;;;;22.60;56.56;100412.38;5098258;27;45733;-79
2021/07/04 01:33:11;;;;;;;;;6.50;5.00;;;;;22.49;57.26;100397.69;5097812;27;45717;-81
2021/07/04 01:35:37;;;;;;;;;6.25;5.75;;;;;22.43;56.61;100385.09;5097925;27;45611;-80
2021/07/04 01:38:03;;;;;;;;;6.75;6.75;;;;;22.60;57.17;100407.84;5097771;27;45751;-80
2021/07/04 01:40:31;;;;;;;;;4.50;4.50;;;;;22.47;57.20;100389.03;5098070;27;45619;-80
2021/07/04 01:42:56;;;;;;;;;5.25;5.25;;;;;22.58;57.11;100409.88;5098011;27;46520;-81
2021/07/04 01:45:22;;;;;;;;;5.25;5.25;;;;;22.57;57.40;100402.88;5097602;27;45730;-80
2021/07/04 01:51:10;;;;;;;;;5.00;5.00;;;;;22.54;57.32;100405.94;5097411;27;45533;-79
2021/07/04 01:53:36;;;;;;;;;4.00;4.00;;;;;22.51;57.47;100406.31;5097279;27;46370;-80
2021/07/04 01:56:04;;;;;;;;;5.25;5.25;;;;;22.50;57.60;100402.00;5097050;27;46447;-78
2021/07/04 01:58:30;;;;;;;;;5.25;5.25;;;;;22.50;57.28;100404.69;5097363;27;45664;-78
2021/07/04 02:00:56;;;;;;;;;6.25;6.25;;;;;22.49;57.30;100400.34;5097062;27;45521;-79
2021/07/04 02:03:21;;;;;;;;;6.25;4.50;;;;;22.39;57.58;100397.19;5096988;27;47478;-79
2021/07/04 02:05:47;;;;;;;;;5.00;5.00;;;;;22.41;57.95;100387.13;5096498;27;45709;-79
2021/07/04 02:08:12;;;;;;;;;6.00;6.00;;;;;22.38;57.56;100400.88;5096989;27;45638;-79
2021/07/04 02:10:39;;;;;;;;;6.25;5.00;;;;;22.20;57.31;100363.09;5097151;27;45556;-79
2021/07/04 02:13:07;;;;;;;;;7.00;6.25;;;;;22.37;57.83;100395.72;5097018;27;46798;-80
2021/07/04 02:15:35;;;;;;;;;5.25;4.25;;;;;22.32;57.88;100382.09;5096953;27;46176;-79
2021/07/04 02:21:23;;;;;;;;;4.50;4.25;;;;;22.30;58.01;100400.97;5096795;27;45646;-79
2021/07/04 02:23:48;;;;;;;;;5.25;5.00;;;;;22.25;57.65;100394.56;5097137;27;45571;-79
2021/07/04 02:26:14;;;;;;;;;6.00;5.00;;;;;22.28;57.92;100396.84;5096761;27;45667;-80
2021/07/04 02:28:39;;;;;;;;;6.25;6.00;;;;;22.20;58.20;100384.44;5096391;27;45689;-79
2021/07/04 02:31:05;;;;;;;;;9.00;6.25;;;;;22.27;57.76;100384.53;5097144;27;45687;-80
2021/07/04 02:33:30;;;;;;;;;6.00;5.25;;;;;22.26;58.16;100385.53;5097222;27;45585;-80
2021/07/04 02:35:58;;;;;;;;;5.00;5.00;;;;;22.27;57.61;100379.19;5096904;27;46210;-80
2021/07/04 02:38:24;;;;;;;;;6.75;6.00;;;;;22.21;57.93;100377.28;5095284;27;45711;-80
2021/07/04 02:40:51;;;;;;;;;5.50;5.00;;;;;22.22;57.74;100379.75;5097801;27;45520;-80
2021/07/04 02:43:20;;;;;;;;;5.00;5.00;;;;;22.21;58.07;100375.44;5101370;27;45670;-81
2021/07/04 02:45:46;;;;;;;;;5.00;5.00;;;;;22.19;58.17;100369.44;5101335;27;48142;-79
2021/07/04 02:51:33;;;;;;;;;6.00;5.25;;;;;22.25;57.86;100391.88;5099443;27;45513;-79
2021/07/04 02:53:59;;;;;;;;;6.00;6.00;;;;;22.25;58.44;100394.56;5096580;27;46510;-78
2021/07/04 02:56:24;;;;;;;;;7.00;5.50;;;;;22.15;58.48;100379.69;5096144;27;45697;-78
2021/07/04 02:58:50;;;;;;;;;5.25;5.00;;;;;22.24;58.32;100387.59;5096076;27;45582;-79
2021/07/04 03:01:15;;;;;;;;;5.50;5.50;;;;;22.20;58.13;100379.09;5096557;27;45641;-79
2021/07/04 03:03:41;;;;;;;;;6.25;5.00;;;;;22.12;58.61;100366.72;5096093;27;46333;-79
2021/07/04 03:06:06;;;;;;;;;5.75;5.75;;;;;22.12;58.63;100366.72;5096208;27;45598;-79
2021/07/04 03:08:32;;;;;;;;;6.75;6.00;;;;;22.17;58.07;100379.50;5095982;27;45681;-79
2021/07/04 03:10:57;;;;;;;;;5.00;5.00;;;;;22.17;58.57;100383.00;5096434;27;45654;-80
2021/07/04 03:13:23;;;;;;;;;6.00;6.00;;;;;22.16;58.25;100391.19;5095985;27;45562;-79
2021/07/04 03:15:48;;;;;;;;;7.00;7.00;;;;;22.13;58.39;100375.56;5095987;27;45610;-79
2021/07/04 03:21:35;;;;;;;;;4.50;4.00;;;;;22.13;58.20;100367.56;5095932;27;45720;-81
2021/07/04 03:24:00;;;;;;;;;4.25;4.00;;;;;22.06;58.80;100361.31;5095509;27;45691;-80
2021/07/04 03:26:26;;;;;;;;;5.00;4.00;;;;;22.05;58.52;100359.66;5096038;27;45706;-79
2021/07/04 03:28:51;;;;;;;;;3.00;3.00;;;;;21.97;58.65;100347.25;5095103;27;45802;-80
2021/07/04 03:31:17;;;;;;;;;4.00;4.00;;;;;21.85;58.68;100337.25;5095884;27;45695;-79
2021/07/04 03:37:04;;;;;;;;;4.25;4.25;;;;;21.84;58.83;100340.94;5095672;27;45671;-79
2021/07/04 03:39:29;;;;;;;;;5.25;4.50;;;;;21.83;59.28;100352.59;5095747;27;45663;-80
2021/07/04 03:41:55;;;;;;;;;3.25;3.00;;;;;21.81;59.06;100358.13;5095732;27;45643;-80
2021/07/04 03:44:20;;;;;;;;;3.00;3.00;;;;;21.80;59.25;100363.66;5095639;27;46469;-80
2021/07/04 03:46:46;;;;;;;;;5.00;5.00;;;;;21.71;58.93;100360.25;5095415;27;45669;-79
2021/07/04 03:49:12;;;;;;;;;3.75;3.75;;;;;21.73;59.28;100366.25;5095210;27;45652;-79
2021/07/04 03:51:37;;;;;;;;;4.50;4.00;;;;;21.77;59.09;100373.69;5095674;27;45520;-80
2021/07/04 03:54:03;;;;;;;;;4.00;4.00;;;;;21.57;59.42;100335.28;5095312;27;45573;-79
2021/07/04 03:56:29;;;;;;;;;6.00;5.00;;;;;21.71;59.23;100361.09;5095085;27;47302;-79
2021/07/04 03:58:54;;;;;;;;;5.50;4.00;;;;;21.74;59.43;100362.56;5095639;27;45644;-78
2021/07/04 04:01:20;;;;;;;;;4.00;4.00;;;;;21.74;59.79;100362.56;5095632;27;45850;-78
2021/07/04 04:07:49;;;;;;;;;5.25;4.75;;;;;21.68;59.88;100365.97;5090199;27;45798;-80
2021/07/04 04:10:14;;;;;;;;;4.50;4.50;;;;;21.69;59.41;100356.97;5095729;27;45599;-80
2021/07/04 04:12:42;;;;;;;;;3.00;3.00;;;;;21.55;59.60;100347.97;5096715;27;45632;-78
2021/07/04 04:15:09;;;;;;;;;4.00;4.00;;;;;21.68;59.76;100369.47;5097063;27;45681;-77
2021/07/04 04:17:36;;;;;;;;;4.00;4.00;;;;;21.66;59.86;100362.66;5102412;27;46545;-79
2021/07/04 04:20:03;;;;;;;;;4.00;4.00;;;;;21.66;59.83;100360.81;5102595;27;45485;-79
2021/07/04 04:22:29;;;;;;;;;3.50;3.50;;;;;21.66;60.45;100365.34;5102276;27;45620;-80
2021/07/04 04:24:54;;;;;;;;;4.25;4.00;;;;;21.64;59.95;100368.22;5099449;27;46559;-79
2021/07/04 04:27:20;;;;;;;;;4.50;4.00;;;;;21.58;59.93;100357.44;5095425;27;45770;-80
2021/07/04 04:29:45;;;;;;;;;4.00;4.00;;;;;21.63;60.07;100360.38;5095006;27;45619;-79
2021/07/04 04:32:11;;;;;;;;;3.50;3.00;;;;;21.61;60.29;100360.56;5095127;27;45478;-79
2021/07/04 04:34:37;;;;;;;;;4.00;3.00;;;;;21.47;60.30;100328.59;5094834;27;45583;-80
2021/07/04 04:37:03;;;;;;;;;4.00;4.00;;;;;21.52;60.02;100329.69;5094863;27;45796;-79
2021/07/04 04:39:29;;;;;;;;;3.50;3.50;;;;;21.45;60.07;100312.78;5095670;27;45633;-80
2021/07/04 04:41:54;;;;;;;;;4.00;3.50;;;;;21.58;60.27;100341.47;5098695;27;45668;-80
2021/07/04 04:44:20;;;;;;;;;4.75;4.75;;;;;21.56;60.50;100341.63;5098470;27;45738;-80
2021/07/04 04:46:45;;;;;;;;;3.75;3.75;;;;;21.55;60.22;100347.16;5080149;27;45699;-80
2021/07/04 04:52:33;;;;;;;;;4.00;4.00;;;;;21.50;60.28;100347.69;5098725;27;45747;-80
2021/07/04 04:55:00;;;;;;;;;7.50;7.00;;;;;21.52;60.49;100353.69;5098015;27;45528;-79
2021/07/04 04:57:27;;;;;;;;;6.25;6.00;;;;;21.52;60.54;100352.84;5098263;27;46020;-79
2021/07/04 04:59:52;;;;;;;;;6.25;5.25;;;;;21.47;60.65;100355.25;5098368;27;45770;-78
2021/07/04 05:02:17;;;;;;;;;3.50;3.50;;;;;21.50;60.39;100365.53;5098195;27;45544;-79
2021/07/04 05:04:43;;;;;;;;;17.00;14.00;;;;;21.47;60.88;100364.09;5098000;27;46418;-79
2021/07/04 05:07:09;;;;;;;;;4.25;3.25;;;;;21.44;60.42;100360.94;5097719;27;46230;-78
2021/07/04 05:09:35;;;;;;;;;4.00;3.00;;;;;21.06;60.72;100298.91;5098220;27;45595;-78
2021/07/04 05:12:00;;;;;;;;;4.00;3.25;;;;;21.30;60.64;100365.28;5098289;27;45877;-78
2021/07/04 05:14:26;;;;;;;;;5.75;5.00;;;;;21.26;61.45;100364.00;5097939;27;45520;-79
2021/07/04 05:16:51;;;;;;;;;3.00;3.00;;;;;21.20;61.22;100362.06;5097837;27;46196;-79
2021/07/04 05:22:38;;;;;;;;;7.00;6.00;;;;;21.01;61.08;100360.72;5097958;27;45806;-80
2021/07/04 05:25:05;;;;;;;;;3.50;3.00;;;;;20.87;61.68;100357.06;5097551;27;45594;-80
2021/07/04 05:27:31;;;;;;;;;3.00;3.00;;;;;20.72;61.37;100345.56;5097965;27;45951;-78
2021/07/04 05:29:57;;;;;;;;;4.25;3.00;;;;;20.79;61.77;100358.94;5097789;27;45662;-80
2021/07/04 05:32:22;;;;;;;;;4.00;3.00;;;;;20.74;61.78;100364.00;5079394;27;45974;-79
2021/07/04 05:38:17;;;;;;;;;3.00;3.00;;;;;20.65;61.82;100360.59;5097742;27;45506;-79
2021/07/04 05:40:43;;;;;;;;;4.75;4.00;;;;;20.63;61.76;100351.13;5097737;27;45668;-78
2021/07/04 05:43:08;;;;;;;;;4.00;3.00;;;;;20.66;61.86;100354.25;5098406;27;45485;-79
2021/07/04 05:45:34;;;;;;;;;4.25;4.00;;;;;20.66;61.98;100348.94;5100835;27;45592;-79
2021/07/04 05:48:00;;;;;;;;;6.50;6.00;;;;;20.56;62.05;100327.06;5101547;27;46000;-78
2021/07/04 05:50:26;;;;;;;;;3.00;3.00;;;;;20.62;61.97;100339.63;5100050;27;45723;-79
2021/07/04 05:52:52;;;;;;;;;3.00;3.00;;;;;20.70;61.76;100347.56;5100541;27;45638;-78
2021/07/04 05:55:17;;;;;;;;;3.00;3.00;;;;;20.66;62.00;100337.47;5100539;27;45751;-79
2021/07/04 05:57:43;;;;;;;;;5.50;4.50;;;;;20.69;61.96;100343.25;5100467;27;45744;-79
2021/07/04 06:00:10;;;;;;;;;4.25;4.00;;;;;20.67;62.29;100357.75;5100129;27;45587;-79
2021/07/04 06:02:35;;;;;;;;;7.50;6.00;;;;;20.71;61.78;100361.72;5097648;27;45595;-79
2021/07/04 06:08:22;;;;;;;;;5.00;4.00;;;;;20.62;62.18;100347.63;5087216;27;45794;-79
2021/07/04 06:10:51;;;;;;;;;4.00;4.00;;;;;20.73;61.91;100357.03;5097138;27;45605;-78
2021/07/04 06:13:16;;;;;;;;;4.00;3.00;;;;;20.69;62.05;100353.88;5097293;27;45606;-79
2021/07/04 06:15:42;;;;;;;;;3.00;3.00;;;;;20.68;61.86;100351.41;5096885;27;46320;-79
2021/07/04 06:18:07;;;;;;;;;3.00;3.00;;;;;20.72;62.06;100356.22;5096479;27;46051;-79
2021/07/04 06:20:33;;;;;;;;;4.00;3.75;;;;;20.65;62.06;100349.94;5096785;27;45626;-79
2021/07/04 06:23:00;;;;;;;;;6.00;6.00;;;;;20.72;62.12;100364.19;5097191;27;45700;-79
2021/07/04 06:25:26;;;;;;;;;14.00;12.25;;;;;20.73;62.07;100365.03;5096896;27;46505;-80
2021/07/04 06:27:52;;;;;;;;;4.00;4.00;;;;;20.66;62.17;100351.59;5096658;27;45801;-79
2021/07/04 06:30:25;;;;;;;;;4.00;4.00;;;;;20.64;62.16;100353.59;5078133;27;45658;-80
2021/07/04 06:32:53;;;;;;;;;6.00;5.25;;;;;20.71;62.19;100359.88;5096617;27;45846;-79
2021/07/04 06:38:41;;;;;;;;;2.00;2.00;;;;;20.78;62.07;100358.13;5096494;27;45745;-78
2021/07/04 06:41:06;;;;;;;;;4.00;4.00;;;;;20.72;62.08;100348.22;5096698;27;45812;-82
2021/07/04 06:43:31;;;;;;;;;4.00;3.50;;;;;20.70;62.09;100339.56;5096864;27;45670;-80
2021/07/04 06:45:57;;;;;;;;;3.00;3.00;;;;;20.79;62.14;100354.47;5096769;27;46506;-82
2021/07/04 06:48:22;;;;;;;;;3.75;3.00;;;;;20.84;62.10;100362.72;5094668;27;47535;-81
2021/07/04 06:50:48;;;;;;;;;3.25;2.50;;;;;20.78;62.31;100352.00;5096095;27;45659;-79
2021/07/04 06:53:13;;;;;;;;;3.00;3.00;;;;;20.75;62.31;100353.16;5096057;27;45844;-79
2021/07/04 06:55:39;;;;;;;;;3.00;3.00;;;;;20.70;62.24;100352.88;5096297;27;45634;-81
2021/07/04 06:58:04;;;;;;;;;3.00;3.00;;;;;20.61;62.27;100340.66;5096108;27;45647;-81
2021/07/04 07:00:30;;;;;;;;;3.00;3.00;;;;;20.52;62.09;100331.06;5096219;27;45779;-79
2021/07/04 07:02:55;;;;;;;;;2.00;2.00;;;;;20.55;62.48;100344.03;5095527;27;45686;-81
2021/07/04 07:08:42;;;;;;;;;3.75;3.00;;;;;20.42;62.66;100341.16;5092249;27;46040;-81
2021/07/04 07:11:08;;;;;;;;;5.00;3.25;;;;;20.37;62.88;100338.19;5096178;27;45569;-78
2021/07/04 07:13:33;;;;;;;;;4.00;3.25;;;;;20.43;63.20;100350.78;5095988;27;45612;-80
2021/07/04 07:15:59;;;;;;;;;3.75;3.00;;;;;20.22;62.92;100321.34;5094760;27;46823;-81
2021/07/04 07:18:24;;;;;;;;;1.00;1.00;;;;;20.39;63.09;100346.84;5096224;27;46277;-80
2021/07/04 07:20:50;;;;;;;;;3.50;3.50;;;;;20.38;63.30;100355.81;5096477;27;45602;-83
2021/07/04 07:23:15;;;;;;;;;4.25;3.25;;;;;20.38;63.26;100355.81;5079384;27;45582;-80
2021/07/04 07:25:41;;;;;;;;;4.00;3.00;;;;;20.39;63.21;100350.34;5098438;27;45625;-81
2021/07/04 07:28:06;;;;;;;;;5.00;4.25;;;;;20.32;63.23;100343.22;5096868;27;45519;-79
2021/07/04 07:30:32;;;;;;;;;4.25;4.00;;;;;20.39;63.09;100358.31;5099574;27;45761;-80
2021/07/04 07:32:57;;;;;;;;;3.00;3.00;;;;;20.41;63.47;100363.44;5102334;27;45821;-77
2021/07/04 07:38:45;;;;;;;;;3.25;3.25;;;;;20.39;63.40;100376.13;5100207;27;45671;-79
2021/07/04 07:41:10;;;;;;;;;3.25;3.25;;;;;20.38;64.14;100380.59;5096398;27;45695;-79
2021/07/04 07:43:35;;;;;;;;;3.00;3.00;;;;;20.35;64.04;100372.97;5095640;27;45687;-78
2021/07/04 07:46:01;;;;;;;;;1.75;1.00;;;;;20.31;64.11;100381.44;5095258;27;47282;-79
2021/07/04 07:48:26;;;;;;;;;2.50;2.50;;;;;20.32;63.94;100377.81;5095260;27;45776;-79
2021/07/04 07:54:42;;;;;;;;;2.75;2.75;;;;;20.20;64.21;100384.53;5095500;27;45744;-79
2021/07/04 07:57:09;;;;;;;;;4.00;3.00;;;;;20.19;63.74;100370.38;5095342;27;45621;-80
2021/07/04 07:59:35;;;;;;;;;3.75;3.75;;;;;20.22;64.06;100383.34;5077092;27;46283;-80
2021/07/04 08:02:01;;;;;;;;;2.00;2.00;;;;;20.18;63.90;100374.09;5095704;27;45706;-80
2021/07/04 08:04:27;;;;;;;;;4.00;3.00;;;;;20.28;64.01;100397.78;5093698;27;45833;-81
2021/07/04 08:06:53;;;;;;;;;3.75;2.75;;;;;20.28;64.09;100389.81;5095358;27;46975;-78
2021/07/04 08:09:18;;;;;;;;;2.75;2.75;;;;;20.23;64.09;100379.69;5095150;27;46123;-79
2021/07/04 08:11:44;;;;;;;;;3.00;3.00;;;;;20.29;64.05;100392.28;5095529;27;45626;-80
2021/07/04 08:14:10;;;;;;;;;3.00;3.00;;;;;20.16;63.93;100353.97;5095014;27;45516;-80
2021/07/04 08:16:35;;;;;;;;;1.25;1.25;;;;;20.38;63.75;100377.94;5095213;27;46815;-80
2021/07/04 08:19:01;;;;;;;;;1.50;1.50;;;;;20.39;63.59;100352.16;5093585;27;47124;-80
2021/07/04 08:21:28;;;;;;;;;2.00;1.75;;;;;20.36;63.34;100336.53;5095519;27;45833;-81
2021/07/04 08:23:54;;;;;;;;;1.00;1.00;;;;;20.42;63.12;100338.50;5095210;27;45702;-79
2021/07/04 08:26:19;;;;;;;;;2.75;1.25;;;;;20.43;63.60;100346.31;5095286;27;45618;-78
2021/07/04 08:28:45;;;;;;;;;1.50;1.00;;;;;20.40;62.98;100328.03;5094682;27;45729;-79
2021/07/04 08:31:10;;;;;;;;;2.50;2.00;;;;;20.37;62.81;100332.88;5094956;27;45572;-80
2021/07/04 08:33:36;;;;;;;;;1.00;1.00;;;;;20.37;62.80;100344.34;5093655;27;45687;-79
2021/07/04 08:39:23;;;;;;;;;2.25;2.25;;;;;20.25;63.83;100328.94;5094496;27;46052;-79
2021/07/04 08:41:48;;;;;;;;;2.00;2.00;;;;;20.26;63.62;100333.25;5094774;27;45696;-80
2021/07/04 08:44:14;;;;;;;;;2.00;2.00;;;;;20.25;63.76;100337.75;5094959;27;45790;-80
2021/07/04 08:46:44;;;;;;;;;6.00;5.75;;;;;20.31;64.10;100353.03;5094992;27;45883;-79
2021/07/04 08:49:12;;;;;;;;;4.00;3.25;;;;;20.31;63.67;100341.53;5095018;27;45547;-80
2021/07/04 08:51:38;;;;;;;;;2.75;2.25;;;;;20.27;63.66;100337.59;5094745;27;45768;-80
2021/07/04 08:54:05;;;;;;;;;3.00;3.00;;;;;20.41;63.80;100350.97;5094830;27;45612;-82
2021/07/04 08:56:30;;;;;;;;;2.00;2.00;;;;;20.37;63.68;100339.03;5094820;27;45663;-79
2021/07/04 08:58:56;;;;;;;;;2.50;2.50;;;;;20.45;63.71;100351.47;5095307;27;45714;-80
2021/07/04 09:01:24;;;;;;;;;2.00;2.00;;;;;20.44;63.19;100336.50;5095019;27;45527;-80
2021/07/04 09:03:52;;;;;;;;;2.00;2.00;;;;;20.41;63.31;100335.00;5096015;27;45657;-79
2021/07/04 09:09:39;;;;;;;;;1.50;1.00;;;;;20.50;62.66;100335.78;5087819;27;45848;-79
2021/07/04 09:12:07;;;;;;;;;2.50;2.00;;;;;20.59;62.00;100339.19;5098837;27;45621;-79
2021/07/04 09:14:48;;;;;;;;;1.00;1.00;;;;;20.61;62.29;100343.34;5099046;27;45682;-78
2021/07/04 09:17:16;;;;;;;;;0.75;0.75;;;;;20.63;62.55;100343.97;5098269;27;45659;-78
2021/07/04 09:20:06;;;;;;;;;1.50;1.00;;;;;20.61;62.12;100330.03;5096268;27;46142;-79
2021/07/04 09:22:36;;;;;;;;;1.00;1.00;;;;;20.67;62.26;100342.63;5094865;27;45604;-77
2021/07/04 09:25:13;;;;;;;;;3.00;2.00;;;;;20.70;62.05;100334.25;5097362;27;45800;-80
2021/07/04 09:27:41;;;;;;;;;1.00;1.00;;;;;20.79;61.53;100335.81;5101535;27;45467;-80
2021/07/04 09:30:11;;;;;;;;;1.00;1.00;;;;;20.82;61.03;100324.00;5080671;27;47323;-80
2021/07/04 09:32:36;;;;;;;;;1.00;0.50;;;;;20.81;60.70;100317.00;5098054;27;45762;-80
2021/07/04 09:35:10;;;;;;;;;0.00;0.00;;;;;20.80;60.83;100300.19;5097740;27;45766;-80
2021/07/04 09:37:44;;;;;;;;;1.75;1.00;;;;;20.93;60.36;100305.72;5097986;27;45528;-77
2021/07/04 09:40:12;;;;;;;;;1.00;1.00;;;;;21.02;59.86;100311.78;5097374;27;46157;-78
2021/07/04 09:43:07;;;;;;;;;1.00;0.00;;;;;21.09;59.96;100309.22;5097468;27;45686;-78
2021/07/04 09:45:51;;;;;;;;;0.00;0.00;;;;;21.14;59.87;100312.16;5097526;27;45647;-79
2021/07/04 09:48:27;;;;;;;;;2.00;1.00;;;;;21.17;59.93;100309.13;5097641;27;45543;-79
2021/07/04 09:50:54;;;;;;;;;3.00;1.00;;;;;21.25;59.92;100314.38;5097441;27;46169;-80
2021/07/04 09:53:22;;;;;;;;;1.25;0.75;;;;;21.29;59.80;100313.81;5097704;27;45636;-77
2021/07/04 09:55:51;;;;;;;;;1.00;1.00;;;;;21.30;59.96;100302.16;5097303;27;45734;-77
2021/07/04 09:58:17;;;;;;;;;2.00;2.00;;;;;21.46;60.10;100318.94;5096891;27;46851;-78
2021/07/04 10:00:45;;;;;;;;;1.00;1.00;;;;;21.50;59.86;100304.22;5097059;27;46505;-79
2021/07/04 10:03:21;;;;;;;;;1.50;1.50;;;;;21.58;59.99;100312.94;5097245;27;45633;-78
2021/07/04 10:05:53;;;;;;;;;2.00;2.00;;;;;21.65;59.79;100310.34;5097739;27;45499;-77
2021/07/04 10:08:31;;;;;;;;;1.25;1.25;;;;;21.70;59.70;100303.44;5097287;27;45612;-77
2021/07/04 10:11:07;;;;;;;;;2.00;1.25;;;;;21.76;59.28;100309.84;5097162;27;45973;-78
2021/07/04 10:13:36;;;;;;;;;0.00;0.00;;;;;21.80;58.71;100300.47;5097017;27;45614;-77
2021/07/04 10:16:03;;;;;;;;;1.00;1.00;;;;;21.70;58.28;100278.63;5096908;27;45670;-78
2021/07/04 10:18:28;;;;;;;;;0.00;0.00;;;;;21.70;57.91;100271.44;5097144;27;47921;-76
2021/07/04 10:20:54;;;;;;;;;1.00;1.00;;;;;21.88;58.25;100297.69;5097092;27;45718;-78
2021/07/04 10:23:23;;;;;;;;;0.00;0.00;;;;;21.82;57.55;100276.25;5097220;27;45674;-76
2021/07/04 10:25:51;;;;;;;;;1.00;1.00;;;;;21.94;57.38;100291.63;5097300;27;45655;-76
2021/07/04 10:28:23;;;;;;;;;1.00;1.00;;;;;21.99;57.61;100299.88;5097164;27;45562;-76
2021/07/04 10:30:49;;;;;;;;;0.00;0.00;;;;;22.03;57.00;100286.97;5096894;27;45650;-77
2021/07/04 10:33:15;;;;;;;;;0.25;0.25;;;;;22.07;56.70;100285.59;5096426;27;45531;-77
2021/07/04 10:36:12;;;;;;;;;1.00;1.00;;;;;22.12;57.04;100275.16;5097054;27;45517;-79
2021/07/04 10:38:48;;;;;;;;;2.00;1.00;;;;;22.07;56.88;100262.41;5096356;27;45527;-77
2021/07/04 10:41:29;;;;;;;;;1.00;1.00;;;;;22.22;56.75;100282.84;5097049;27;46271;-76
2021/07/04 10:43:59;;;;;;;;;1.25;1.00;;;;;22.25;56.86;100283.28;5097475;27;45571;-77
2021/07/04 10:46:56;;;;;;;;;0.75;0.75;;;;;22.28;56.46;100280.22;5098524;27;45868;-77
2021/07/04 10:49:24;;;;;;;;;1.00;1.00;;;;;22.35;56.60;100272.28;5039583;28;45658;-79
2021/07/04 10:51:54;;;;;;;;;1.00;1.00;;;;;22.40;56.49;100278.66;5039418;28;45752;-77
2021/07/04 10:54:38;;;;;;;;;1.00;1.00;;;;;22.42;55.80;100287.31;5036266;28;45665;-76
2021/07/04 10:57:36;;;;;;;;;0.00;0.00;;;;;22.44;56.49;100285.28;5033846;28;45760;-76
2021/07/04 11:00:03;;;;;;;;;1.25;1.00;;;;;22.47;56.33;100284.91;5026250;28;45777;-76
2021/07/04 11:02:54;;;;;;;;;2.00;1.75;;;;;22.49;56.24;100276.69;5033056;28;45647;-77
2021/07/04 11:08:52;;;;;;;;;1.25;1.25;;;;;22.47;56.79;100258.19;5029776;28;45871;-78
2021/07/04 11:11:28;;;;;;;;;2.25;1.25;;;;;22.56;56.14;100257.00;5013520;28;46491;-77
2021/07/04 11:14:07;;;;;;;;;1.00;1.00;;;;;22.59;56.27;100264.66;5012961;28;46098;-76
2021/07/04 11:16:33;;;;;;;;;1.25;1.00;;;;;22.62;55.94;100262.63;5013249;28;45644;-77
2021/07/04 11:19:06;;;;;;;;;1.25;1.00;;;;;22.65;56.19;100246.19;5013082;28;45570;-76
2021/07/04 11:25:16;;;;;;;;;1.00;1.00;;;;;22.80;56.62;100242.41;5012247;28;45733;-76
2021/07/04 11:27:42;;;;;;;;;1.00;1.00;;;;;22.87;56.26;100245.94;5055024;28;45692;-76
2021/07/04 11:30:26;;;;;;;;;0.50;0.50;;;;;22.92;55.42;100254.19;5055184;28;45637;-78
2021/07/04 11:33:37;;;;;;;;;0.00;0.00;;;;;22.95;54.16;100239.59;5055639;28;45522;-77
2021/07/04 11:36:15;;;;;;;;;1.00;1.00;;;;;22.95;55.12;100235.09;5054726;28;46507;-78
2021/07/04 11:38:42;;;;;;;;;1.00;0.25;;;;;22.96;54.28;100236.75;5053342;28;45802;-77
2021/07/04 11:41:11;;;;;;;;;0.00;0.00;;;;;22.98;54.81;100220.50;5054753;28;45801;-77
2021/07/04 11:43:40;;;;;;;;;1.00;1.00;;;;;23.05;54.42;100229.38;5054485;28;46426;-76
2021/07/04 11:46:11;;;;;;;;;2.00;1.00;;;;;23.07;54.23;100216.63;5054547;28;46371;-77
2021/07/04 11:48:59;;;;;;;;;1.25;1.00;;;;;23.18;54.34;100225.94;5053907;28;45606;-78
2021/07/04 11:51:45;;;;;;;;;0.00;0.00;;;;;23.22;53.51;100230.66;5054390;28;45898;-77
2021/07/04 11:54:17;;;;;;;;;1.00;0.50;;;;;23.28;54.26;100215.69;5054340;28;46868;-78
2021/07/04 11:56:46;;;;;;;;;0.00;0.00;;;;;23.21;54.19;100212.97;5054269;28;45913;-78
2021/07/04 11:59:18;;;;;;;;;1.00;0.50;;;;;23.29;53.73;100204.78;5054313;28;45525;-77
2021/07/04 12:01:47;;;;;;;;;1.50;1.50;;;;;23.41;53.57;100218.41;5054658;28;45584;-77
2021/07/04 12:04:13;;;;;;;;;1.00;1.00;;;;;23.51;53.13;100218.03;5054467;28;46204;-77
2021/07/04 12:06:57;;;;;;;;;0.00;0.00;;;;;23.59;53.22;100207.97;5054354;28;46172;-77
2021/07/04 12:09:56;;;;;;;;;1.00;1.00;;;;;23.65;53.67;100209.84;5071780;27;45658;-77
2021/07/04 12:12:30;;;;;;;;;2.00;1.00;;;;;23.71;53.74;100209.03;5032609;28;45761;-77
2021/07/04 12:15:00;;;;;;;;;1.75;1.25;;;;;23.73;53.49;100209.66;5032152;28;45609;-78
2021/07/04 12:17:47;;;;;;;;;1.00;0.25;;;;;23.65;53.59;100231.25;5037041;28;46941;-86
2021/07/04 12:20:24;;;;;;;;;0.00;0.00;;;;;23.57;53.69;100246.66;5035598;28;45659;-82
2021/07/04 12:22:51;;;;;;;;;1.00;0.00;;;;;23.45;53.79;100235.69;5034578;28;45782;-80
2021/07/04 12:25:16;;;;;;;;;1.00;1.00;;;;;23.35;54.37;100225.38;5040041;28;46819;-79
2021/07/04 12:27:45;;;;;;;;;0.50;0.00;;;;;23.17;54.07;100209.06;5024643;28;47922;-81
2021/07/04 12:30:28;;;;;;;;;0.00;0.00;;;;;23.16;54.40;100218.09;5040844;28;45777;-79
2021/07/04 12:32:57;;;;;;;;;1.00;1.00;;;;;23.13;55.12;100226.53;5038751;28;45756;-81
2021/07/04 12:35:32;;;;;;;;;0.25;0.25;;;;;23.09;55.24;100221.78;5035117;28;47101;-81
2021/07/04 12:38:03;;;;;;;;;1.00;1.00;;;;;22.91;54.81;100196.44;5035263;28;45538;-78
2021/07/04 12:44:14;;;;;;;;;0.25;0.25;;;;;22.74;55.48;100191.59;4992378;28;45969;-81
2021/07/04 12:46:40;;;;;;;;;2.25;2.25;;;;;22.76;55.78;100214.44;4993093;28;45763;-82